sensor_id;sensor_type;location;lat;lon;timestamp;P1;durP1;ratioP1;P2;durP2;ratioP2
15633;SDS011;14654;48.898;8.308;2023-09-07T00:00:33;5.23;;;4.63;;
15633;SDS011;14654;48.898;8.308;2023-09-07T00:02:59;4.60;;;4.20;;
15633;SDS011;14654;48.898;8.308;2023-09-07T00:05:24;5.67;;;4.60;;
15633;SDS011;14654;48.898;8.308;2023-09-07T00:07:50;4.77;;;4.30;;
15633;SDS011;14654;48.898;8.308;2023-09-07T00:10:15;5.93;;;4.07;;
15633;SDS011;14654;48.898;8.308;2023-09-07T00:12:42;5.17;;;4.40;;
15633;SDS011;14654;48.898;8.308;2023-09-07T00:15:08;4.30;;;3.93;;
15633;SDS011;14654;48.898;8.308;2023-09-07T00:17:35;4.67;;;4.27;;
15633;SDS011;14654;48.898;8.308;2023-09-07T00:20:00;4.20;;;3.90;;
15633;SDS011;14654;48.898;8.308;2023-09-07T00:22:29;4.40;;;4.00;;
15633;SDS011;14654;48.898;8.308;2023-09-07T00:24:54;5.37;;;4.10;;
15633;SDS011;14654;48.898;8.308;2023-09-07T00:27:19;4.77;;;4.40;;
15633;SDS011;14654;48.898;8.308;2023-09-07T00:29:45;5.27;;;4.70;;
15633;SDS011;14654;48.898;8.308;2023-09-07T00:32:10;4.93;;;4.43;;
15633;SDS011;14654;48.898;8.308;2023-09-07T00:34:36;4.40;;;4.00;;
15633;SDS011;14654;48.898;8.308;2023-09-07T00:37:01;6.30;;;3.70;;
15633;SDS011;14654;48.898;8.308;2023-09-07T00:39:26;4.73;;;4.33;;
15633;SDS011;14654;48.898;8.308;2023-09-07T00:41:51;4.17;;;3.77;;
15633;SDS011;14654;48.898;8.308;2023-09-07T00:44:17;5.43;;;4.40;;
15633;SDS011;14654;48.898;8.308;2023-09-07T00:46:42;5.67;;;4.07;;
15633;SDS011;14654;48.898;8.308;2023-09-07T00:49:09;4.87;;;3.80;;
15633;SDS011;14654;48.898;8.308;2023-09-07T00:51:36;4.30;;;3.90;;
15633;SDS011;14654;48.898;8.308;2023-09-07T00:54:01;4.70;;;4.30;;
15633;SDS011;14654;48.898;8.308;2023-09-07T00:56:26;4.50;;;4.10;;
15633;SDS011;14654;48.898;8.308;2023-09-07T00:58:52;4.03;;;3.73;;
15633;SDS011;14654;48.898;8.308;2023-09-07T01:01:19;5.80;;;3.60;;
15633;SDS011;14654;48.898;8.308;2023-09-07T01:03:46;3.80;;;3.50;;
15633;SDS011;14654;48.898;8.308;2023-09-07T01:06:12;4.57;;;3.97;;
15633;SDS011;14654;48.898;8.308;2023-09-07T01:08:44;4.60;;;3.70;;
15633;SDS011;14654;48.898;8.308;2023-09-07T01:11:16;4.50;;;4.10;;
15633;SDS011;14654;48.898;8.308;2023-09-07T01:13:43;4.10;;;3.80;;
15633;SDS011;14654;48.898;8.308;2023-09-07T01:16:09;5.90;;;3.67;;
15633;SDS011;14654;48.898;8.308;2023-09-07T01:18:36;4.77;;;3.70;;
15633;SDS011;14654;48.898;8.308;2023-09-07T01:21:02;4.90;;;3.80;;
15633;SDS011;14654;48.898;8.308;2023-09-07T01:23:30;6.77;;;4.40;;
15633;SDS011;14654;48.898;8.308;2023-09-07T01:25:56;4.87;;;4.10;;
15633;SDS011;14654;48.898;8.308;2023-09-07T01:28:22;7.97;;;4.17;;
15633;SDS011;14654;48.898;8.308;2023-09-07T01:30:48;4.37;;;4.07;;
15633;SDS011;14654;48.898;8.308;2023-09-07T01:33:13;4.33;;;3.93;;
15633;SDS011;14654;48.898;8.308;2023-09-07T01:35:38;4.47;;;4.00;;
15633;SDS011;14654;48.898;8.308;2023-09-07T01:38:05;4.37;;;4.03;;
15633;SDS011;14654;48.898;8.308;2023-09-07T01:40:30;4.40;;;4.00;;
15633;SDS011;14654;48.898;8.308;2023-09-07T01:42:55;4.60;;;4.17;;
15633;SDS011;14654;48.898;8.308;2023-09-07T01:45:20;4.53;;;3.93;;
15633;SDS011;14654;48.898;8.308;2023-09-07T01:47:47;4.53;;;4.13;;
15633;SDS011;14654;48.898;8.308;2023-09-07T01:50:12;4.37;;;4.00;;
15633;SDS011;14654;48.898;8.308;2023-09-07T01:52:39;4.97;;;4.30;;
15633;SDS011;14654;48.898;8.308;2023-09-07T01:55:04;4.90;;;4.40;;
15633;SDS011;14654;48.898;8.308;2023-09-07T01:57:29;5.00;;;4.13;;
15633;SDS011;14654;48.898;8.308;2023-09-07T01:59:56;4.77;;;3.80;;
15633;SDS011;14654;48.898;8.308;2023-09-07T02:02:22;4.30;;;3.90;;
15633;SDS011;14654;48.898;8.308;2023-09-07T02:04:48;4.17;;;3.87;;
15633;SDS011;14654;48.898;8.308;2023-09-07T02:07:13;4.50;;;4.00;;
15633;SDS011;14654;48.898;8.308;2023-09-07T02:09:39;4.30;;;4.00;;
15633;SDS011;14654;48.898;8.308;2023-09-07T02:12:05;5.93;;;4.00;;
15633;SDS011;14654;48.898;8.308;2023-09-07T02:14:31;5.90;;;4.10;;
15633;SDS011;14654;48.898;8.308;2023-09-07T02:16:56;4.83;;;4.33;;
15633;SDS011;14654;48.898;8.308;2023-09-07T02:19:21;4.73;;;3.97;;
15633;SDS011;14654;48.898;8.308;2023-09-07T02:21:48;4.43;;;4.03;;
15633;SDS011;14654;48.898;8.308;2023-09-07T02:24:14;4.23;;;3.83;;
15633;SDS011;14654;48.898;8.308;2023-09-07T02:26:39;3.97;;;3.60;;
15633;SDS011;14654;48.898;8.308;2023-09-07T02:29:09;4.10;;;3.77;;
15633;SDS011;14654;48.898;8.308;2023-09-07T02:31:35;4.57;;;3.73;;
15633;SDS011;14654;48.898;8.308;2023-09-07T02:34:00;4.60;;;4.03;;
15633;SDS011;14654;48.898;8.308;2023-09-07T02:36:26;4.33;;;4.03;;
15633;SDS011;14654;48.898;8.308;2023-09-07T02:38:51;5.07;;;4.40;;
15633;SDS011;14654;48.898;8.308;2023-09-07T02:41:16;4.43;;;4.10;;
15633;SDS011;14654;48.898;8.308;2023-09-07T02:43:41;3.83;;;3.47;;
15633;SDS011;14654;48.898;8.308;2023-09-07T02:46:07;3.83;;;3.53;;
15633;SDS011;14654;48.898;8.308;2023-09-07T02:48:32;4.27;;;3.93;;
15633;SDS011;14654;48.898;8.308;2023-09-07T02:50:57;5.60;;;4.03;;
15633;SDS011;14654;48.898;8.308;2023-09-07T02:53:23;4.40;;;4.07;;
15633;SDS011;14654;48.898;8.308;2023-09-07T02:55:49;5.33;;;4.03;;
15633;SDS011;14654;48.898;8.308;2023-09-07T02:58:14;5.20;;;3.90;;
15633;SDS011;14654;48.898;8.308;2023-09-07T03:00:44;4.40;;;3.80;;
15633;SDS011;14654;48.898;8.308;2023-09-07T03:03:11;6.00;;;4.10;;
15633;SDS011;14654;48.898;8.308;2023-09-07T03:05:38;3.83;;;3.53;;
15633;SDS011;14654;48.898;8.308;2023-09-07T03:08:05;3.80;;;3.50;;
15633;SDS011;14654;48.898;8.308;2023-09-07T03:10:31;4.10;;;3.80;;
15633;SDS011;14654;48.898;8.308;2023-09-07T03:12:57;3.73;;;3.40;;
15633;SDS011;14654;48.898;8.308;2023-09-07T03:15:22;3.73;;;3.47;;
15633;SDS011;14654;48.898;8.308;2023-09-07T03:17:47;4.63;;;3.90;;
15633;SDS011;14654;48.898;8.308;2023-09-07T03:20:12;3.90;;;3.40;;
15633;SDS011;14654;48.898;8.308;2023-09-07T03:22:41;5.77;;;3.57;;
15633;SDS011;14654;48.898;8.308;2023-09-07T03:25:08;5.93;;;3.80;;
15633;SDS011;14654;48.898;8.308;2023-09-07T03:27:34;5.27;;;4.20;;
15633;SDS011;14654;48.898;8.308;2023-09-07T03:29:59;4.80;;;4.00;;
15633;SDS011;14654;48.898;8.308;2023-09-07T03:32:24;4.97;;;4.00;;
15633;SDS011;14654;48.898;8.308;2023-09-07T03:34:51;8.10;;;4.20;;
15633;SDS011;14654;48.898;8.308;2023-09-07T03:37:17;4.43;;;3.90;;
15633;SDS011;14654;48.898;8.308;2023-09-07T03:39:42;5.00;;;4.10;;
15633;SDS011;14654;48.898;8.308;2023-09-07T03:42:07;5.10;;;4.07;;
15633;SDS011;14654;48.898;8.308;2023-09-07T03:44:33;6.30;;;4.00;;
15633;SDS011;14654;48.898;8.308;2023-09-07T03:46:58;4.87;;;3.80;;
15633;SDS011;14654;48.898;8.308;2023-09-07T03:49:25;5.40;;;3.83;;
15633;SDS011;14654;48.898;8.308;2023-09-07T03:51:50;5.43;;;3.93;;
15633;SDS011;14654;48.898;8.308;2023-09-07T03:54:16;4.67;;;4.27;;
15633;SDS011;14654;48.898;8.308;2023-09-07T03:56:41;4.13;;;3.83;;
15633;SDS011;14654;48.898;8.308;2023-09-07T03:59:06;6.30;;;4.30;;
15633;SDS011;14654;48.898;8.308;2023-09-07T04:01:32;4.20;;;3.80;;
15633;SDS011;14654;48.898;8.308;2023-09-07T04:03:58;4.40;;;4.00;;
15633;SDS011;14654;48.898;8.308;2023-09-07T04:06:23;3.70;;;3.40;;
15633;SDS011;14654;48.898;8.308;2023-09-07T04:08:49;7.53;;;4.27;;
15633;SDS011;14654;48.898;8.308;2023-09-07T04:11:14;4.70;;;4.20;;
15633;SDS011;14654;48.898;8.308;2023-09-07T04:13:39;4.17;;;3.77;;
15633;SDS011;14654;48.898;8.308;2023-09-07T04:16:05;3.90;;;3.50;;
15633;SDS011;14654;48.898;8.308;2023-09-07T04:18:30;5.03;;;4.07;;
15633;SDS011;14654;48.898;8.308;2023-09-07T04:21:04;4.40;;;4.00;;
15633;SDS011;14654;48.898;8.308;2023-09-07T04:23:33;4.73;;;3.30;;
15633;SDS011;14654;48.898;8.308;2023-09-07T04:26:03;4.67;;;4.27;;
15633;SDS011;14654;48.898;8.308;2023-09-07T04:28:32;6.93;;;4.13;;
15633;SDS011;14654;48.898;8.308;2023-09-07T04:30:57;4.83;;;4.40;;
15633;SDS011;14654;48.898;8.308;2023-09-07T04:33:22;4.60;;;4.20;;
15633;SDS011;14654;48.898;8.308;2023-09-07T04:35:47;4.60;;;3.90;;
15633;SDS011;14654;48.898;8.308;2023-09-07T04:38:13;4.10;;;3.80;;
15633;SDS011;14654;48.898;8.308;2023-09-07T04:40:38;4.17;;;3.53;;
15633;SDS011;14654;48.898;8.308;2023-09-07T04:43:03;7.03;;;4.00;;
15633;SDS011;14654;48.898;8.308;2023-09-07T04:45:29;6.03;;;4.33;;
15633;SDS011;14654;48.898;8.308;2023-09-07T04:47:54;4.80;;;4.27;;
15633;SDS011;14654;48.898;8.308;2023-09-07T04:50:19;4.17;;;3.80;;
15633;SDS011;14654;48.898;8.308;2023-09-07T04:52:45;4.10;;;3.70;;
15633;SDS011;14654;48.898;8.308;2023-09-07T04:55:10;4.90;;;4.50;;
15633;SDS011;14654;48.898;8.308;2023-09-07T04:57:36;5.83;;;4.50;;
15633;SDS011;14654;48.898;8.308;2023-09-07T05:00:02;4.40;;;3.90;;
15633;SDS011;14654;48.898;8.308;2023-09-07T05:02:28;4.80;;;4.40;;
15633;SDS011;14654;48.898;8.308;2023-09-07T05:04:54;4.20;;;3.90;;
15633;SDS011;14654;48.898;8.308;2023-09-07T05:07:19;4.20;;;3.80;;
15633;SDS011;14654;48.898;8.308;2023-09-07T05:09:44;4.30;;;4.00;;
15633;SDS011;14654;48.898;8.308;2023-09-07T05:12:09;4.47;;;4.17;;
15633;SDS011;14654;48.898;8.308;2023-09-07T05:14:35;5.60;;;4.13;;
15633;SDS011;14654;48.898;8.308;2023-09-07T05:17:01;4.53;;;3.93;;
15633;SDS011;14654;48.898;8.308;2023-09-07T05:19:26;5.40;;;4.10;;
15633;SDS011;14654;48.898;8.308;2023-09-07T05:21:52;4.97;;;3.47;;
15633;SDS011;14654;48.898;8.308;2023-09-07T05:24:17;4.40;;;4.00;;
15633;SDS011;14654;48.898;8.308;2023-09-07T05:26:43;3.70;;;3.40;;
15633;SDS011;14654;48.898;8.308;2023-09-07T05:29:08;4.23;;;3.90;;
15633;SDS011;14654;48.898;8.308;2023-09-07T05:31:34;4.47;;;4.07;;
15633;SDS011;14654;48.898;8.308;2023-09-07T05:34:00;3.87;;;3.57;;
15633;SDS011;14654;48.898;8.308;2023-09-07T05:36:26;4.00;;;3.70;;
15633;SDS011;14654;48.898;8.308;2023-09-07T05:38:52;3.80;;;3.50;;
15633;SDS011;14654;48.898;8.308;2023-09-07T05:41:17;4.07;;;3.77;;
15633;SDS011;14654;48.898;8.308;2023-09-07T05:43:43;3.90;;;3.60;;
15633;SDS011;14654;48.898;8.308;2023-09-07T05:46:08;3.90;;;3.60;;
15633;SDS011;14654;48.898;8.308;2023-09-07T05:48:33;4.70;;;4.20;;
15633;SDS011;14654;48.898;8.308;2023-09-07T05:50:59;6.20;;;3.83;;
15633;SDS011;14654;48.898;8.308;2023-09-07T05:53:24;7.20;;;4.00;;
15633;SDS011;14654;48.898;8.308;2023-09-07T05:55:51;4.50;;;4.03;;
15633;SDS011;14654;48.898;8.308;2023-09-07T05:58:16;4.40;;;4.00;;
15633;SDS011;14654;48.898;8.308;2023-09-07T06:00:42;3.90;;;3.60;;
15633;SDS011;14654;48.898;8.308;2023-09-07T06:03:08;5.63;;;3.93;;
15633;SDS011;14654;48.898;8.308;2023-09-07T06:05:34;5.10;;;4.10;;
15633;SDS011;14654;48.898;8.308;2023-09-07T06:08:01;10.17;;;9.27;;
15633;SDS011;14654;48.898;8.308;2023-09-07T06:10:27;4.13;;;3.73;;
15633;SDS011;14654;48.898;8.308;2023-09-07T06:12:54;5.30;;;4.40;;
15633;SDS011;14654;48.898;8.308;2023-09-07T06:15:19;4.13;;;3.80;;
15633;SDS011;14654;48.898;8.308;2023-09-07T06:17:45;5.57;;;4.17;;
15633;SDS011;14654;48.898;8.308;2023-09-07T06:20:10;5.17;;;4.37;;
15633;SDS011;14654;48.898;8.308;2023-09-07T06:22:36;5.40;;;3.70;;
15633;SDS011;14654;48.898;8.308;2023-09-07T06:25:01;4.30;;;3.90;;
15633;SDS011;14654;48.898;8.308;2023-09-07T06:27:27;4.80;;;4.00;;
15633;SDS011;14654;48.898;8.308;2023-09-07T06:29:52;4.23;;;3.60;;
15633;SDS011;14654;48.898;8.308;2023-09-07T06:32:17;3.90;;;3.60;;
15633;SDS011;14654;48.898;8.308;2023-09-07T06:34:43;4.23;;;3.83;;
15633;SDS011;14654;48.898;8.308;2023-09-07T06:37:09;4.30;;;3.90;;
15633;SDS011;14654;48.898;8.308;2023-09-07T06:39:36;4.53;;;4.10;;
15633;SDS011;14654;48.898;8.308;2023-09-07T06:42:01;4.07;;;3.77;;
15633;SDS011;14654;48.898;8.308;2023-09-07T06:44:28;4.80;;;3.37;;
15633;SDS011;14654;48.898;8.308;2023-09-07T06:46:53;3.50;;;3.20;;
15633;SDS011;14654;48.898;8.308;2023-09-07T06:49:19;3.33;;;2.93;;
15633;SDS011;14654;48.898;8.308;2023-09-07T06:51:44;3.27;;;2.97;;
15633;SDS011;14654;48.898;8.308;2023-09-07T06:54:09;3.17;;;2.90;;
15633;SDS011;14654;48.898;8.308;2023-09-07T06:56:35;2.90;;;2.60;;
15633;SDS011;14654;48.898;8.308;2023-09-07T06:59:00;4.70;;;2.77;;
15633;SDS011;14654;48.898;8.308;2023-09-07T07:01:26;3.50;;;2.60;;
15633;SDS011;14654;48.898;8.308;2023-09-07T07:03:51;3.40;;;2.80;;
15633;SDS011;14654;48.898;8.308;2023-09-07T07:06:18;3.93;;;2.40;;
15633;SDS011;14654;48.898;8.308;2023-09-07T07:08:43;4.47;;;3.10;;
15633;SDS011;14654;48.898;8.308;2023-09-07T07:11:09;3.27;;;2.97;;
15633;SDS011;14654;48.898;8.308;2023-09-07T07:13:34;3.33;;;3.03;;
15633;SDS011;14654;48.898;8.308;2023-09-07T07:16:00;4.10;;;3.40;;
15633;SDS011;14654;48.898;8.308;2023-09-07T07:18:25;3.47;;;3.17;;
15633;SDS011;14654;48.898;8.308;2023-09-07T07:20:50;3.60;;;3.00;;
15633;SDS011;14654;48.898;8.308;2023-09-07T07:23:15;2.70;;;2.50;;
15633;SDS011;14654;48.898;8.308;2023-09-07T07:25:41;5.75;;;3.30;;
15633;SDS011;14654;48.898;8.308;2023-09-07T07:28:06;4.07;;;2.90;;
15633;SDS011;14654;48.898;8.308;2023-09-07T07:30:33;4.20;;;3.33;;
15633;SDS011;14654;48.898;8.308;2023-09-07T07:32:59;5.18;;;3.05;;
15633;SDS011;14654;48.898;8.308;2023-09-07T07:35:24;3.55;;;3.20;;
15633;SDS011;14654;48.898;8.308;2023-09-07T07:37:50;6.30;;;3.20;;
15633;SDS011;14654;48.898;8.308;2023-09-07T07:40:16;5.07;;;3.43;;
15633;SDS011;14654;48.898;8.308;2023-09-07T07:42:43;3.13;;;2.80;;
15633;SDS011;14654;48.898;8.308;2023-09-07T07:45:09;3.60;;;3.00;;
15633;SDS011;14654;48.898;8.308;2023-09-07T07:47:34;4.43;;;3.67;;
15633;SDS011;14654;48.898;8.308;2023-09-07T07:50:00;4.47;;;3.20;;
15633;SDS011;14654;48.898;8.308;2023-09-07T07:52:25;3.93;;;2.97;;
15633;SDS011;14654;48.898;8.308;2023-09-07T07:54:51;3.00;;;2.80;;
15633;SDS011;14654;48.898;8.308;2023-09-07T07:57:16;3.73;;;3.33;;
15633;SDS011;14654;48.898;8.308;2023-09-07T07:59:42;3.30;;;3.00;;
15633;SDS011;14654;48.898;8.308;2023-09-07T08:02:07;4.07;;;2.97;;
15633;SDS011;14654;48.898;8.308;2023-09-07T08:04:33;3.17;;;2.97;;
15633;SDS011;14654;48.898;8.308;2023-09-07T08:06:59;4.00;;;2.90;;
15633;SDS011;14654;48.898;8.308;2023-09-07T08:09:29;5.07;;;3.53;;
15633;SDS011;14654;48.898;8.308;2023-09-07T08:11:55;4.07;;;3.57;;
15633;SDS011;14654;48.898;8.308;2023-09-07T08:14:21;3.57;;;3.27;;
15633;SDS011;14654;48.898;8.308;2023-09-07T08:16:47;3.60;;;3.27;;
15633;SDS011;14654;48.898;8.308;2023-09-07T08:19:12;3.90;;;3.60;;
15633;SDS011;14654;48.898;8.308;2023-09-07T08:21:38;3.20;;;3.00;;
15633;SDS011;14654;48.898;8.308;2023-09-07T08:24:03;3.37;;;3.07;;
15633;SDS011;14654;48.898;8.308;2023-09-07T08:26:28;3.63;;;3.33;;
15633;SDS011;14654;48.898;8.308;2023-09-07T08:28:54;3.50;;;3.13;;
15633;SDS011;14654;48.898;8.308;2023-09-07T08:31:19;4.00;;;3.30;;
15633;SDS011;14654;48.898;8.308;2023-09-07T08:33:47;3.57;;;3.27;;
15633;SDS011;14654;48.898;8.308;2023-09-07T08:36:15;3.43;;;3.13;;
15633;SDS011;14654;48.898;8.308;2023-09-07T08:38:42;3.37;;;3.07;;
15633;SDS011;14654;48.898;8.308;2023-09-07T08:41:07;3.50;;;3.20;;
15633;SDS011;14654;48.898;8.308;2023-09-07T08:43:33;3.63;;;3.23;;
15633;SDS011;14654;48.898;8.308;2023-09-07T08:46:09;6.20;;;3.53;;
15633;SDS011;14654;48.898;8.308;2023-09-07T08:48:39;4.67;;;3.73;;
15633;SDS011;14654;48.898;8.308;2023-09-07T08:51:07;4.10;;;3.27;;
15633;SDS011;14654;48.898;8.308;2023-09-07T08:53:34;3.80;;;3.30;;
15633;SDS011;14654;48.898;8.308;2023-09-07T08:56:01;3.30;;;3.07;;
15633;SDS011;14654;48.898;8.308;2023-09-07T08:58:27;3.57;;;3.23;;
15633;SDS011;14654;48.898;8.308;2023-09-07T09:00:52;3.43;;;3.13;;
15633;SDS011;14654;48.898;8.308;2023-09-07T09:03:18;4.80;;;3.20;;
15633;SDS011;14654;48.898;8.308;2023-09-07T09:05:44;3.77;;;3.47;;
15633;SDS011;14654;48.898;8.308;2023-09-07T09:08:09;3.37;;;3.07;;
15633;SDS011;14654;48.898;8.308;2023-09-07T09:10:37;3.73;;;3.43;;
15633;SDS011;14654;48.898;8.308;2023-09-07T09:13:03;3.80;;;3.27;;
15633;SDS011;14654;48.898;8.308;2023-09-07T09:15:29;6.17;;;3.87;;
15633;SDS011;14654;48.898;8.308;2023-09-07T09:17:54;4.30;;;3.90;;
15633;SDS011;14654;48.898;8.308;2023-09-07T09:20:23;4.57;;;3.97;;
15633;SDS011;14654;48.898;8.308;2023-09-07T09:22:50;3.60;;;3.30;;
15633;SDS011;14654;48.898;8.308;2023-09-07T09:25:17;6.23;;;3.77;;
15633;SDS011;14654;48.898;8.308;2023-09-07T09:27:42;4.17;;;3.77;;
15633;SDS011;14654;48.898;8.308;2023-09-07T09:30:07;4.40;;;3.60;;
15633;SDS011;14654;48.898;8.308;2023-09-07T09:32:33;4.63;;;3.73;;
15633;SDS011;14654;48.898;8.308;2023-09-07T09:34:59;3.77;;;3.30;;
15633;SDS011;14654;48.898;8.308;2023-09-07T09:37:25;3.93;;;3.50;;
15633;SDS011;14654;48.898;8.308;2023-09-07T09:39:51;3.90;;;3.33;;
15633;SDS011;14654;48.898;8.308;2023-09-07T09:42:18;4.60;;;4.20;;
15633;SDS011;14654;48.898;8.308;2023-09-07T09:44:45;5.00;;;4.10;;
15633;SDS011;14654;48.898;8.308;2023-09-07T09:47:14;4.47;;;3.97;;
15633;SDS011;14654;48.898;8.308;2023-09-07T09:49:40;5.97;;;4.33;;
15633;SDS011;14654;48.898;8.308;2023-09-07T09:52:06;4.60;;;4.20;;
15633;SDS011;14654;48.898;8.308;2023-09-07T09:54:33;4.20;;;3.80;;
15633;SDS011;14654;48.898;8.308;2023-09-07T09:57:00;3.90;;;3.60;;
15633;SDS011;14654;48.898;8.308;2023-09-07T09:59:25;5.63;;;4.33;;
15633;SDS011;14654;48.898;8.308;2023-09-07T10:01:51;4.00;;;3.70;;
15633;SDS011;14654;48.898;8.308;2023-09-07T10:04:19;3.97;;;3.67;;
15633;SDS011;14654;48.898;8.308;2023-09-07T10:06:54;4.90;;;3.90;;
15633;SDS011;14654;48.898;8.308;2023-09-07T10:09:21;5.43;;;4.93;;
15633;SDS011;14654;48.898;8.308;2023-09-07T10:11:51;5.13;;;4.23;;
15633;SDS011;14654;48.898;8.308;2023-09-07T10:14:18;6.40;;;5.17;;
15633;SDS011;14654;48.898;8.308;2023-09-07T10:16:44;6.37;;;4.33;;
15633;SDS011;14654;48.898;8.308;2023-09-07T10:19:21;5.50;;;4.70;;
15633;SDS011;14654;48.898;8.308;2023-09-07T10:21:47;4.60;;;4.20;;
15633;SDS011;14654;48.898;8.308;2023-09-07T10:27:11;4.47;;;4.07;;
15633;SDS011;14654;48.898;8.308;2023-09-07T10:29:43;4.50;;;4.10;;
15633;SDS011;14654;48.898;8.308;2023-09-07T10:32:17;7.07;;;4.97;;
15633;SDS011;14654;48.898;8.308;2023-09-07T10:34:42;6.03;;;4.90;;
15633;SDS011;14654;48.898;8.308;2023-09-07T10:37:12;5.33;;;4.83;;
15633;SDS011;14654;48.898;8.308;2023-09-07T10:39:38;5.30;;;4.90;;
15633;SDS011;14654;48.898;8.308;2023-09-07T10:42:04;5.97;;;4.63;;
15633;SDS011;14654;48.898;8.308;2023-09-07T10:44:30;5.00;;;4.60;;
15633;SDS011;14654;48.898;8.308;2023-09-07T10:46:56;5.20;;;4.67;;
15633;SDS011;14654;48.898;8.308;2023-09-07T10:49:23;5.27;;;4.63;;
15633;SDS011;14654;48.898;8.308;2023-09-07T10:51:49;5.50;;;5.10;;
15633;SDS011;14654;48.898;8.308;2023-09-07T10:54:15;4.93;;;4.53;;
15633;SDS011;14654;48.898;8.308;2023-09-07T10:56:43;5.07;;;4.57;;
15633;SDS011;14654;48.898;8.308;2023-09-07T10:59:09;5.13;;;4.73;;
15633;SDS011;14654;48.898;8.308;2023-09-07T11:01:34;7.23;;;5.00;;
15633;SDS011;14654;48.898;8.308;2023-09-07T11:04:00;5.50;;;4.80;;
15633;SDS011;14654;48.898;8.308;2023-09-07T11:06:26;7.00;;;5.10;;
15633;SDS011;14654;48.898;8.308;2023-09-07T11:08:51;7.40;;;5.20;;
15633;SDS011;14654;48.898;8.308;2023-09-07T11:11:17;5.53;;;5.03;;
15633;SDS011;14654;48.898;8.308;2023-09-07T11:13:42;5.10;;;4.70;;
15633;SDS011;14654;48.898;8.308;2023-09-07T11:16:08;6.37;;;4.87;;
15633;SDS011;14654;48.898;8.308;2023-09-07T11:18:35;6.33;;;5.20;;
15633;SDS011;14654;48.898;8.308;2023-09-07T11:21:01;5.33;;;4.93;;
15633;SDS011;14654;48.898;8.308;2023-09-07T11:23:29;6.07;;;5.57;;
15633;SDS011;14654;48.898;8.308;2023-09-07T11:26:03;5.53;;;5.03;;
15633;SDS011;14654;48.898;8.308;2023-09-07T11:28:29;6.53;;;5.53;;
15633;SDS011;14654;48.898;8.308;2023-09-07T11:30:55;8.27;;;5.87;;
15633;SDS011;14654;48.898;8.308;2023-09-07T11:33:21;6.33;;;5.73;;
15633;SDS011;14654;48.898;8.308;2023-09-07T11:35:47;5.90;;;5.40;;
15633;SDS011;14654;48.898;8.308;2023-09-07T11:38:14;5.17;;;4.77;;
15633;SDS011;14654;48.898;8.308;2023-09-07T11:40:40;5.97;;;5.37;;
15633;SDS011;14654;48.898;8.308;2023-09-07T11:43:09;5.60;;;5.10;;
15633;SDS011;14654;48.898;8.308;2023-09-07T11:45:35;6.43;;;5.80;;
15633;SDS011;14654;48.898;8.308;2023-09-07T11:48:01;6.50;;;5.30;;
15633;SDS011;14654;48.898;8.308;2023-09-07T11:50:26;5.70;;;5.03;;
15633;SDS011;14654;48.898;8.308;2023-09-07T11:52:55;5.97;;;5.40;;
15633;SDS011;14654;48.898;8.308;2023-09-07T11:55:20;10.23;;;5.80;;
15633;SDS011;14654;48.898;8.308;2023-09-07T11:57:45;6.50;;;5.77;;
15633;SDS011;14654;48.898;8.308;2023-09-07T12:00:11;7.47;;;5.87;;
15633;SDS011;14654;48.898;8.308;2023-09-07T12:02:38;6.07;;;5.33;;
15633;SDS011;14654;48.898;8.308;2023-09-07T12:05:04;5.40;;;5.00;;
15633;SDS011;14654;48.898;8.308;2023-09-07T12:07:31;5.70;;;5.20;;
15633;SDS011;14654;48.898;8.308;2023-09-07T12:09:57;6.13;;;5.33;;
15633;SDS011;14654;48.898;8.308;2023-09-07T12:12:22;5.60;;;5.20;;
15633;SDS011;14654;48.898;8.308;2023-09-07T12:14:48;6.60;;;6.00;;
15633;SDS011;14654;48.898;8.308;2023-09-07T12:17:13;5.50;;;5.10;;
15633;SDS011;14654;48.898;8.308;2023-09-07T12:19:39;5.97;;;5.47;;
15633;SDS011;14654;48.898;8.308;2023-09-07T12:22:06;6.13;;;5.30;;
15633;SDS011;14654;48.898;8.308;2023-09-07T12:24:32;5.73;;;5.07;;
15633;SDS011;14654;48.898;8.308;2023-09-07T12:26:58;6.20;;;5.60;;
15633;SDS011;14654;48.898;8.308;2023-09-07T12:29:24;5.47;;;5.07;;
15633;SDS011;14654;48.898;8.308;2023-09-07T12:31:50;6.77;;;5.57;;
15633;SDS011;14654;48.898;8.308;2023-09-07T12:34:15;6.33;;;5.50;;
15633;SDS011;14654;48.898;8.308;2023-09-07T12:36:41;5.83;;;5.33;;
15633;SDS011;14654;48.898;8.308;2023-09-07T12:39:06;7.83;;;5.93;;
15633;SDS011;14654;48.898;8.308;2023-09-07T12:41:32;5.37;;;4.87;;
15633;SDS011;14654;48.898;8.308;2023-09-07T12:43:57;5.10;;;4.70;;
15633;SDS011;14654;48.898;8.308;2023-09-07T12:46:22;5.47;;;4.97;;
15633;SDS011;14654;48.898;8.308;2023-09-07T12:48:48;7.70;;;5.87;;
15633;SDS011;14654;48.898;8.308;2023-09-07T12:51:13;9.30;;;5.77;;
15633;SDS011;14654;48.898;8.308;2023-09-07T12:53:38;5.93;;;5.43;;
15633;SDS011;14654;48.898;8.308;2023-09-07T12:56:04;5.60;;;5.10;;
15633;SDS011;14654;48.898;8.308;2023-09-07T12:58:30;6.00;;;5.50;;
15633;SDS011;14654;48.898;8.308;2023-09-07T13:00:55;5.70;;;5.13;;
15633;SDS011;14654;48.898;8.308;2023-09-07T13:03:21;5.93;;;5.43;;
15633;SDS011;14654;48.898;8.308;2023-09-07T13:05:46;6.73;;;5.67;;
15633;SDS011;14654;48.898;8.308;2023-09-07T13:08:12;6.97;;;5.30;;
15633;SDS011;14654;48.898;8.308;2023-09-07T13:10:38;5.87;;;5.30;;
15633;SDS011;14654;48.898;8.308;2023-09-07T13:13:03;7.27;;;5.33;;
15633;SDS011;14654;48.898;8.308;2023-09-07T13:15:29;9.23;;;5.80;;
15633;SDS011;14654;48.898;8.308;2023-09-07T13:17:54;5.60;;;5.10;;
15633;SDS011;14654;48.898;8.308;2023-09-07T13:20:19;7.87;;;6.20;;
15633;SDS011;14654;48.898;8.308;2023-09-07T13:22:45;5.20;;;4.70;;
15633;SDS011;14654;48.898;8.308;2023-09-07T13:25:11;6.73;;;5.80;;
15633;SDS011;14654;48.898;8.308;2023-09-07T13:27:37;5.80;;;5.23;;
15633;SDS011;14654;48.898;8.308;2023-09-07T13:30:03;6.27;;;5.67;;
15633;SDS011;14654;48.898;8.308;2023-09-07T13:32:33;6.63;;;5.87;;
15633;SDS011;14654;48.898;8.308;2023-09-07T13:34:59;6.40;;;4.83;;
15633;SDS011;14654;48.898;8.308;2023-09-07T13:37:24;5.43;;;4.67;;
15633;SDS011;14654;48.898;8.308;2023-09-07T13:39:49;5.53;;;5.13;;
15633;SDS011;14654;48.898;8.308;2023-09-07T13:42:15;7.70;;;5.47;;
15633;SDS011;14654;48.898;8.308;2023-09-07T13:44:40;5.30;;;4.73;;
15633;SDS011;14654;48.898;8.308;2023-09-07T13:47:06;7.40;;;5.40;;
15633;SDS011;14654;48.898;8.308;2023-09-07T13:49:33;5.77;;;5.27;;
15633;SDS011;14654;48.898;8.308;2023-09-07T13:51:58;5.87;;;5.37;;
15633;SDS011;14654;48.898;8.308;2023-09-07T13:54:23;5.20;;;4.80;;
15633;SDS011;14654;48.898;8.308;2023-09-07T13:56:49;5.20;;;4.80;;
15633;SDS011;14654;48.898;8.308;2023-09-07T13:59:14;5.83;;;4.77;;
15633;SDS011;14654;48.898;8.308;2023-09-07T14:01:39;5.43;;;4.93;;
15633;SDS011;14654;48.898;8.308;2023-09-07T14:04:05;5.17;;;4.77;;
15633;SDS011;14654;48.898;8.308;2023-09-07T14:06:31;5.20;;;4.70;;
15633;SDS011;14654;48.898;8.308;2023-09-07T14:08:57;4.97;;;4.57;;
15633;SDS011;14654;48.898;8.308;2023-09-07T14:11:23;7.57;;;4.90;;
15633;SDS011;14654;48.898;8.308;2023-09-07T14:13:48;5.03;;;4.53;;
15633;SDS011;14654;48.898;8.308;2023-09-07T14:16:19;5.90;;;5.27;;
15633;SDS011;14654;48.898;8.308;2023-09-07T14:18:46;6.47;;;5.30;;
15633;SDS011;14654;48.898;8.308;2023-09-07T14:21:15;5.77;;;5.23;;
15633;SDS011;14654;48.898;8.308;2023-09-07T14:23:41;5.37;;;4.87;;
15633;SDS011;14654;48.898;8.308;2023-09-07T14:26:10;5.10;;;4.50;;
15633;SDS011;14654;48.898;8.308;2023-09-07T14:28:35;6.07;;;4.60;;
15633;SDS011;14654;48.898;8.308;2023-09-07T14:31:02;5.80;;;4.40;;
15633;SDS011;14654;48.898;8.308;2023-09-07T14:33:29;5.20;;;4.70;;
15633;SDS011;14654;48.898;8.308;2023-09-07T14:35:55;6.60;;;4.20;;
15633;SDS011;14654;48.898;8.308;2023-09-07T14:38:20;5.83;;;4.90;;
15633;SDS011;14654;48.898;8.308;2023-09-07T14:40:46;4.53;;;4.13;;
15633;SDS011;14654;48.898;8.308;2023-09-07T14:43:14;4.80;;;4.40;;